Airfield :
LOGIN :

Register | Disclaimer

   EN    FR    IT 

 










Legend :    VFR   Marginal VFR   IFR   Intensive IFR   Very Intensive IFR
Visi :
Ceiling :
>= 8 km
>= 3000ft
5 to 8 km
1000 to 3000 ft
1500m to 5 km
500 to 1000 ft
800 to 1500m
200 to 500 ft
< 800m
< 200 ft
Symbols :   Thunderstorms  Fog  Heavy snow  Heavy precipitations  Wind > 20 kt
SIGMETs :     Misc.  Thunderstorms  Icing  Turbulence  Mountain Waves  Volcanic Ashes







- Airport Elevation : 63 ft
- IATA code : BZM


EHWO - Woensdrecht Airbase

CURRENT METAR :
  • 230555Z AUTO 26004KT 4100 BR OVC027 08/07 Q1029 GRN

EXPIRED METARs :
  • 230525Z AUTO 25004KT 3700 BR OVC025 08/07 Q1028 GRN
  • 230455Z AUTO 24004KT 3800 BR OVC024 09/07 Q1028 GRN
  • 230440Z AUTO 24005KT 3700 BR OVC023 08/07 Q1028 GRN
  • 230425Z AUTO 26004KT 3500 BR OVC022 08/07 Q1028 YLO
  • 230415Z AUTO 25004KT 3600 BR OVC022 08/07 Q1028 YLO
  • 230404Z AUTO 24004KT 3500 BR OVC022 08/07 Q1028 YLO
  • 230355Z AUTO 22004KT 3800 BR OVC022 09/07 Q1028 GRN
  • 230345Z AUTO 21003KT 3700 BR OVC022 09/07 Q1028 GRN
  • 230329Z AUTO 21004KT 3700 BR BKN019 OVC023 09/07 Q1028 GRN
  • 230325Z AUTO 22004KT 3400 BR OVC019 09/07 Q1028 YLO
  • 230300Z AUTO 20003KT 180V250 3400 BR BKN014 OVC017 09/07 Q1028 YLO
  • 230259Z AUTO 22003KT 210V280 3500 BR SCT014 OVC016 09/07 Q1028 YLO

Expired Forecast.
No reported NOTAMs for that airfield.



MET'MAP, your aeronautical weather chart ! - Copyright ORBIFLY December 2007 - Disclaimer

ORBIFLY MET'MAP TEAM :

Programming & Development : Alexandra Zaïnal
Concept & Development : Baudouin d'Aumeries
Co-Development & Prog : Marc-Olivier Méhu
Technical & hardware support : Manuel Goepfert

Contact : metmap@orbifly.com




SOURCES & CREDITS :

   NOAA